Terminal Aerodrome Forecast
Issued by NWS

Home | Current Version | Previous Version | Text Only | Print | Product List | Glossary On
Versions: 1 2 3 4 5 6 7 8 9 10 11 12 13 14 15 16 17 18 19
000
FTUS46 KPDT 291120
TAFALW
TAF
KALW 291120Z 2912/3012 11006KT P6SM BKN250
     FM291800 34006KT P6SM SCT080 BKN200
     FM300300 14006KT P6SM BKN100
     FM300600 16008KT P6SM VCSH OVC080=

USA.gov is the U.S. government's official web portal to all federal, state and local government web resources and services.